• Join FlightAware (Why Join?)
  • Login
  • US Flag 
08:09PM EDT


 

Airport Tracker/Info


-or-


 

Live Flight TrackerFlight Track Log ✈ KLM1000 ✈ 24-Sep-2013 ✈ EGLL / LHR - EHAM / AMS

Flight Track Log - Related Links

Times and Time Zones

All times are in EDT time to prevent confusion due to time zone crossing. See the KLM1000 flight status page for this flight to view local times or setup timezone preferences in your user account.

Time Position Orientation Groundspeed Altitude Reporting Facility
EDT Latitude Longitude Course Direction KTS MPH feet Rate Location/Type
02:49AM 51.4640 -0.5140 269° West 164 189 1,100  Level FlightAware
02:49AM 51.4630 -0.5200 255° West 163 188 1,400 2,400 Climbing FlightAware
02:49AM 51.4600 -0.5300 244° Southwest 165 190 1,700 1,560 Climbing FlightAware
02:49AM 51.4570 -0.5360 231° Southwest 169 194 1,800 1,560 Climbing FlightAware
02:49AM 51.4510 -0.5430 216° Southwest 171 197 2,100 1,980 Climbing FlightAware
02:49AM 51.4470 -0.5450 197° South 170 196 2,300 2,400 Climbing FlightAware
02:49AM 51.4430 -0.5460 189° South 170 196 2,500 1,560 Climbing FlightAware
02:50AM 51.4180 -0.5190 146° Southeast 188 216 3,500 1,560 Climbing FlightAware
02:50AM 51.4120 -0.5080 131° Southeast 199 229 3,800 1,200 Climbing FlightAware
02:50AM 51.3970 -0.4880 140° Southeast 226 260 4,100 900 Climbing FlightAware
02:51AM 51.3800 -0.4640 139° Southeast 250 288 4,400 1,080 Climbing FlightAware
02:51AM 51.3540 -0.4240 136° Southeast 263 303 5,000 1,080 Climbing FlightAware
02:52AM 51.3370 -0.3980 136° Southeast 267 307 5,300 1,020 Climbing FlightAware
02:52AM 51.3200 -0.3680 132° Southeast 270 311 5,700 900 Climbing FlightAware
02:52AM 51.3070 -0.3340 121° Southeast 272 313 5,900 300 Climbing FlightAware
02:52AM 51.2980 -0.3080 119° Southeast 272 313 5,900  Level FlightAware
02:53AM 51.2850 -0.2730 121° Southeast 271 312 5,900  Level FlightAware
02:53AM 51.2720 -0.2380 121° Southeast 269 310 5,900 300 Level FlightAware
02:53AM 51.2600 -0.2040 119° Southeast 270 311 6,100 1,320 Climbing FlightAware
02:54AM 51.2510 -0.1810 122° Southeast 271 312 6,700 3,060 Climbing FlightAware
02:54AM 51.2370 -0.1430 120° Southeast 275 316 7,900 3,360 Climbing FlightAware
02:54AM 51.2300 -0.1240 120° Southeast 278 320 8,400 3,180 Climbing FlightAware
02:55AM 51.2180 -0.0920 121° Southeast 282 325 9,500 2,760 Climbing FlightAware
02:55AM 51.1990 -0.0320 117° Southeast 312 359 10,700 2,100 Climbing FlightAware
02:55AM 51.1980 -0.0130 95° East 329 379 10,900 1,020 Climbing FlightAware
02:56AM 51.1970 0.0610 91° East 362 417 11,400 900 Climbing FlightAware
02:56AM 51.1950 0.1830 91° East 395 455 12,000 420 Climbing FlightAware
02:57AM 51.2130 0.2960 76° East 397 457 12,000 1,020 Level FlightAware
02:58AM 51.2320 0.3910 72° East 398 458 13,300 2,400 Climbing FlightAware
02:58AM 51.2520 0.4940 73° East 411 473 14,800 2,280 Climbing FlightAware
02:59AM 51.2720 0.5950 72° East 429 494 16,000 2,100 Climbing FlightAware
02:59AM 51.2930 0.7020 73° East 441 507 17,300 2,220 Climbing FlightAware
03:00AM 51.2990 0.7500 79° East 444 511 17,800 2,220 Climbing FlightAware
03:00AM 51.3035 0.8621 79° East 432 497 19,000 2,220 Climbing FlightAware UK
03:00AM 51.3040 0.8620 79° East 453 521 19,100 2,160 Climbing FlightAware
03:01AM 51.3086 0.9840 79° East 442 509 20,300 1,980 Climbing FlightAware UK
03:01AM 51.3090 0.9940 79° East 463 533 20,400 1,740 Climbing FlightAware
03:01AM 51.3130 1.0980 86° East 471 542 21,400 1,380 Climbing FlightAware
03:02AM 51.3190 1.2310 86° East 477 549 22,000 540 Climbing FlightAware
03:02AM 51.3230 1.3330 108° East 475 547 22,000  Level FlightAware
03:03AM 51.3254 1.4031 86° East 452 520 22,000  Level FlightAware UK
03:03AM 51.3222 1.5292 92° East 450 518 22,000  Level FlightAware UK
03:04AM 51.2805 1.7486 107° East 450 518 22,000  Level FlightAware UK
03:05AM 51.2602 1.8478 108° East 446 513 22,000 -120 Level FlightAware UK
03:05AM 51.2409 1.9429 108° East 414 476 21,900 -120 Descending FlightAware UK
03:06AM 51.2227 2.0310 108° East 396 456 21,900 60 Level FlightAware UK
03:06AM 51.2046 2.1198 108° East 396 456 22,000 60 Climbing FlightAware UK
03:07AM 51.1832 2.2256 108° East 394 453 22,000  Level FlightAware UK
03:07AM 51.1810 2.2350 108° East 419 482 22,000  Level FlightAware
03:08AM 51.1651 2.3134 108° East 394 453 22,000  Level FlightAware UK
03:08AM 51.1610 2.3320 108° East 419 482 22,000  Level FlightAware
03:09AM 51.1586 2.4978 108° East 392 451 22,000  Level FlightAware UK
03:09AM 51.1550 2.4520 108° East 421 484 22,000  Level FlightAware
03:09AM 51.1670 2.6060 83° East 421 484 22,000  Level FlightAware
03:10AM 51.1750 2.7260 84° East 420 483 22,000  Level FlightAware
03:10AM 51.1820 2.8340 84° East 420 483 22,000  Level FlightAware
03:11AM 51.1890 2.9260 83° East 419 482 22,000  Level FlightAware
03:11AM 51.1950 3.0240 84° East 419 482 22,000  Level FlightAware
03:12AM 51.2018 3.1257 84° East 392 451 22,000  Level FlightAware UK
03:12AM 51.2040 3.1600 84° East 420 483 22,000  Level FlightAware
03:13AM 51.2110 3.2580 83° East 421 484 22,000 -360 Level FlightAware
03:13AM 51.2180 3.3630 84° East 421 484 21,600 -840 Descending FlightAware
03:14AM 51.2250 3.4800 84° East 415 478 21,000 -1,020 Descending FlightAware
03:14AM 51.2320 3.5710 83° East 412 474 20,500 -1,080 Descending FlightAware
03:15AM 51.2380 3.5940 67° East 410 472 20,300 -1,200 Descending FlightAware
03:15AM 51.2570 3.6400 57° Northeast 392 451 20,000 -1,140 Descending FlightAware
03:15AM 51.2770 3.6640 37° Northeast 378 435 19,700 -1,200 Descending FlightAware
03:15AM 51.2950 3.6770 24° Northeast 366 421 19,500 -1,020 Descending FlightAware
03:16AM 51.3520 3.7020 15° North 346 398 18,900 -1,080 Descending FlightAware
03:16AM 51.4010 3.7220 14° North 335 386 18,300 -1,080 Descending FlightAware
03:17AM 51.4550 3.7450 15° North 334 384 17,700 -1,020 Descending FlightAware
03:18AM 51.5080 3.7670 14° North 327 376 17,100 -1,020 Descending FlightAware
03:18AM 51.5610 3.7900 15° North 321 369 16,500 -1,020 Descending FlightAware
03:19AM 51.6120 3.8120 15° North 316 364 15,900 -1,020 Descending FlightAware
03:19AM 51.6570 3.8310 15° North 313 360 15,400 -1,200 Descending FlightAware
03:20AM 51.7017 3.8505 15° North 312 359 14,700 -1,320 Descending FlightAware UK
03:20AM 51.7070 3.8520 15° North 307 353 14,600 -1,380 Descending FlightAware
03:20AM 51.7280 3.8680 25° Northeast 310 357 14,200 -1,500 Descending FlightAware
03:21AM 51.7630 3.9160 40° Northeast 311 358 13,400 -1,560 Descending FlightAware
03:21AM 51.8010 3.9700 41° Northeast 308 354 12,500 -1,500 Descending FlightAware
03:22AM 51.8410 4.0280 42° Northeast 305 351 11,600 -1,620 Descending FlightAware
03:23AM 51.8799 4.0853 42° Northeast 296 341 10,600 -1,560 Descending FlightAware UK
03:23AM 51.8800 4.0860 42° Northeast 301 346 10,600 -1,080 Level FlightAware
03:23AM 51.9140 4.1340 41° Northeast 295 339 10,000 -1,080 Descending FlightAware
03:23AM 51.9330 4.1620 42° Northeast 296 341 9,700 -900 Descending FlightAware
03:24AM 51.9500 4.1860 41° Northeast 298 343 9,500 -1,080 Descending FlightAware
03:24AM 51.9700 4.2160 43° Northeast 298 343 9,100 -1,080 Descending FlightAware
03:24AM 51.9900 4.2450 42° Northeast 297 342 8,800 -900 Descending FlightAware
03:25AM 52.0100 4.2740 42° Northeast 296 341 8,500 -1,020 Descending FlightAware
03:25AM 52.0340 4.3100 43° Northeast 295 339 8,100 -960 Descending FlightAware
03:25AM 52.0550 4.3390 40° Northeast 290 334 7,800 -1,140 Descending FlightAware
03:26AM 52.0710 4.3530 28° Northeast 285 328 7,500 -1,080 Descending FlightAware
03:26AM 52.0960 4.3680 20° North 283 326 7,200 -1,020 Descending FlightAware
03:26AM 52.1150 4.3800 21° North 280 322 6,900 -1,020 Descending FlightAware
03:27AM 52.1410 4.3970 22° Northeast 277 319 6,600 -1,080 Descending FlightAware
03:27AM 52.1660 4.4120 20° North 273 314 6,200 -1,080 Descending FlightAware
03:27AM 52.1820 4.4220 21° North 271 312 6,000 -1,020 Descending FlightAware
03:28AM 52.2170 4.4430 20° North 267 307 5,500 -1,140 Descending FlightAware
03:28AM 52.2370 4.4550 20° North 269 310 5,100 -1,320 Descending FlightAware
03:28AM 52.2530 4.4650 21° North 272 313 4,800 -1,500 Descending FlightAware
03:29AM 52.2820 4.4820 20° North 272 313 4,200 -1,260 Descending FlightAware
03:29AM 52.3050 4.4960 20° North 266 306 3,900 -960 Descending FlightAware
03:29AM 52.3180 4.5040 21° North 263 303 3,700 -840 Descending FlightAware
03:30AM 52.3460 4.5200 19° North 249 287 3,400 -600 Descending FlightAware
03:30AM 52.3670 4.5310 18° North 234 269 3,300 -360 Descending FlightAware
03:30AM 52.3880 4.5350 North 228 262 3,200 -180 Descending FlightAware
03:31AM 52.4100 4.5380 North 228 262 3,200  Level FlightAware
03:31AM 52.4260 4.5400 North 227 261 3,200 -180 Level FlightAware
03:31AM 52.4470 4.5430 North 220 253 3,100 -360 Descending FlightAware
03:31AM 52.4650 4.5450 North 214 246 3,000 -300 Descending FlightAware
03:32AM 52.4880 4.5490 North 201 231 2,900 -540 Descending FlightAware
03:32AM 52.5090 4.5520 North 196 226 2,600 -720 Descending FlightAware
03:33AM 52.5270 4.5550 North 190 219 2,400 -780 Descending FlightAware
03:33AM 52.5450 4.5580 North 186 214 2,100 -660 Descending FlightAware
03:33AM 52.5710 4.5620 North 184 212 1,900 -300 Descending FlightAware
03:34AM 52.5840 4.5660 11° North 186 214 1,900  Level FlightAware
03:34AM 52.5870 4.5690 31° Northeast 188 216 1,900  Level FlightAware
03:34AM 52.5910 4.5740 37° Northeast 190 219 1,900  Level FlightAware
03:34AM 52.5940 4.5800 51° Northeast 191 220 1,900  Level FlightAware
03:34AM 52.5960 4.5980 80° East 194 223 1,900  Level FlightAware
03:35AM 52.5960 4.6370 90° East 195 224 1,900  Level FlightAware
03:35AM 52.5950 4.6460 100° East 196 226 1,900  Level FlightAware
03:35AM 52.5920 4.6550 119° Southeast 196 226 1,900  Level FlightAware
03:35AM 52.5860 4.6640 138° Southeast 196 226 1,900  Level FlightAware
03:35AM 52.5800 4.6690 153° Southeast 195 224 1,900  Level FlightAware
03:35AM 52.5700 4.6760 157° South 194 223 1,900  Level FlightAware
03:36AM 52.5540 4.6870 157° South 194 223 1,900  Level FlightAware
03:36AM 52.5370 4.6980 159° South 195 224 1,900  Level FlightAware
03:36AM 52.5200 4.7100 157° South 195 224 1,900  Level FlightAware
03:36AM 52.5110 4.7160 158° South 193 222 1,900  Level FlightAware
03:37AM 52.4990 4.7220 163° South 190 219 1,900  Level FlightAware
03:37AM 52.4890 4.7240 173° South 189 217 1,900  Level FlightAware
03:37AM 52.4650 4.7210 184° South 187 215 1,900 -480 Level FlightAware
03:38AM 52.4440 4.7190 183° South 183 211 1,500 -960 Descending FlightAware
03:38AM 52.4280 4.7180 182° South 171 197 1,200 -960 Descending FlightAware
03:38AM 52.4190 4.7170 184° South 164 189 1,000 -840 Descending FlightAware
03:39AM 52.4010 4.7160 182° South 153 176 700 -840 Descending FlightAware
03:39AM 52.3880 4.7140 185° South 149 171 400 -780 Descending FlightAware
03:39AM 52.3790 4.7130 184° South 149 171 300 -540 Descending FlightAware
03:40AM 52.3640 4.7120 182° South 145 167 -840 Descending FlightAware
03:40AM 52.3500 4.7110 182° South 115 132  Level FlightAware